sensor_id;sensor_type;location;lat;lon;timestamp;P1;durP1;ratioP1;P2;durP2;ratioP2
37931;SDS011;23758;42.640;23.302;2023-06-26T00:01:14;3.10;;;2.90;;
37931;SDS011;23758;42.640;23.302;2023-06-26T00:03:39;2.42;;;2.22;;
37931;SDS011;23758;42.640;23.302;2023-06-26T00:06:05;2.17;;;2.08;;
37931;SDS011;23758;42.640;23.302;2023-06-26T00:08:30;2.25;;;2.15;;
37931;SDS011;23758;42.640;23.302;2023-06-26T00:10:56;2.60;;;2.40;;
37931;SDS011;23758;42.640;23.302;2023-06-26T00:13:22;3.33;;;2.83;;
37931;SDS011;23758;42.640;23.302;2023-06-26T00:15:48;3.60;;;2.65;;
37931;SDS011;23758;42.640;23.302;2023-06-26T00:18:13;3.00;;;2.80;;
37931;SDS011;23758;42.640;23.302;2023-06-26T00:20:39;2.80;;;2.60;;
37931;SDS011;23758;42.640;23.302;2023-06-26T00:23:04;2.67;;;2.47;;
37931;SDS011;23758;42.640;23.302;2023-06-26T00:25:32;2.58;;;2.38;;
37931;SDS011;23758;42.640;23.302;2023-06-26T00:27:58;2.42;;;2.22;;
37931;SDS011;23758;42.640;23.302;2023-06-26T00:30:24;2.10;;;2.00;;
37931;SDS011;23758;42.640;23.302;2023-06-26T00:32:49;2.35;;;2.15;;
37931;SDS011;23758;42.640;23.302;2023-06-26T00:35:16;2.78;;;2.55;;
37931;SDS011;23758;42.640;23.302;2023-06-26T00:37:41;2.30;;;2.20;;
37931;SDS011;23758;42.640;23.302;2023-06-26T00:40:07;2.90;;;2.70;;
37931;SDS011;23758;42.640;23.302;2023-06-26T00:42:33;2.72;;;2.53;;
37931;SDS011;23758;42.640;23.302;2023-06-26T00:44:58;2.60;;;2.42;;
37931;SDS011;23758;42.640;23.302;2023-06-26T00:47:24;2.50;;;2.30;;
37931;SDS011;23758;42.640;23.302;2023-06-26T00:49:50;2.20;;;2.10;;
37931;SDS011;23758;42.640;23.302;2023-06-26T00:52:16;2.95;;;2.75;;
37931;SDS011;23758;42.640;23.302;2023-06-26T00:54:42;2.83;;;2.60;;
37931;SDS011;23758;42.640;23.302;2023-06-26T00:57:08;2.60;;;2.35;;
37931;SDS011;23758;42.640;23.302;2023-06-26T00:59:33;3.08;;;2.50;;
37931;SDS011;23758;42.640;23.302;2023-06-26T01:01:59;2.50;;;2.33;;
37931;SDS011;23758;42.640;23.302;2023-06-26T01:04:25;2.40;;;2.30;;
37931;SDS011;23758;42.640;23.302;2023-06-26T01:06:52;2.38;;;2.28;;
37931;SDS011;23758;42.640;23.302;2023-06-26T01:09:19;2.58;;;2.38;;
37931;SDS011;23758;42.640;23.302;2023-06-26T01:11:45;2.47;;;2.28;;
37931;SDS011;23758;42.640;23.302;2023-06-26T01:14:11;2.50;;;2.30;;
37931;SDS011;23758;42.640;23.302;2023-06-26T01:16:37;2.50;;;2.30;;
37931;SDS011;23758;42.640;23.302;2023-06-26T01:19:06;2.60;;;2.40;;
37931;SDS011;23758;42.640;23.302;2023-06-26T01:21:36;2.35;;;2.25;;
37931;SDS011;23758;42.640;23.302;2023-06-26T01:24:07;2.63;;;2.42;;
37931;SDS011;23758;42.640;23.302;2023-06-26T01:26:39;2.50;;;2.30;;
37931;SDS011;23758;42.640;23.302;2023-06-26T01:29:06;2.10;;;2.00;;
37931;SDS011;23758;42.640;23.302;2023-06-26T01:31:32;2.45;;;2.25;;
37931;SDS011;23758;42.640;23.302;2023-06-26T01:34:00;2.28;;;2.17;;
37931;SDS011;23758;42.640;23.302;2023-06-26T01:36:26;2.47;;;2.33;;
37931;SDS011;23758;42.640;23.302;2023-06-26T01:38:52;3.00;;;2.20;;
37931;SDS011;23758;42.640;23.302;2023-06-26T01:41:18;2.50;;;2.30;;
37931;SDS011;23758;42.640;23.302;2023-06-26T01:51:43;2.30;;;2.20;;
37931;SDS011;23758;42.640;23.302;2023-06-26T01:54:13;4.82;;;2.40;;
37931;SDS011;23758;42.640;23.302;2023-06-26T01:56:45;2.53;;;2.33;;
37931;SDS011;23758;42.640;23.302;2023-06-26T01:59:11;2.50;;;2.30;;
37931;SDS011;23758;42.640;23.302;2023-06-26T02:01:39;2.50;;;2.30;;
37931;SDS011;23758;42.640;23.302;2023-06-26T02:04:04;2.67;;;2.38;;
37931;SDS011;23758;42.640;23.302;2023-06-26T02:06:30;3.05;;;2.80;;
37931;SDS011;23758;42.640;23.302;2023-06-26T02:08:55;2.53;;;2.33;;
37931;SDS011;23758;42.640;23.302;2023-06-26T02:11:21;2.53;;;2.30;;
37931;SDS011;23758;42.640;23.302;2023-06-26T02:13:47;2.75;;;2.55;;
37931;SDS011;23758;42.640;23.302;2023-06-26T02:16:12;2.28;;;2.17;;
37931;SDS011;23758;42.640;23.302;2023-06-26T02:18:38;2.20;;;2.10;;
37931;SDS011;23758;42.640;23.302;2023-06-26T02:21:03;2.25;;;2.13;;
37931;SDS011;23758;42.640;23.302;2023-06-26T02:23:29;2.45;;;2.25;;
37931;SDS011;23758;42.640;23.302;2023-06-26T02:25:55;2.35;;;2.22;;
37931;SDS011;23758;42.640;23.302;2023-06-26T02:28:20;2.17;;;2.08;;
37931;SDS011;23758;42.640;23.302;2023-06-26T02:30:46;2.30;;;2.20;;
37931;SDS011;23758;42.640;23.302;2023-06-26T02:33:11;2.65;;;2.45;;
37931;SDS011;23758;42.640;23.302;2023-06-26T02:35:37;2.13;;;2.03;;
37931;SDS011;23758;42.640;23.302;2023-06-26T02:38:02;2.75;;;2.55;;
37931;SDS011;23758;42.640;23.302;2023-06-26T02:40:28;2.85;;;2.65;;
37931;SDS011;23758;42.640;23.302;2023-06-26T02:42:53;2.40;;;2.30;;
37931;SDS011;23758;42.640;23.302;2023-06-26T02:45:19;2.20;;;2.10;;
37931;SDS011;23758;42.640;23.302;2023-06-26T02:47:44;2.50;;;2.30;;
37931;SDS011;23758;42.640;23.302;2023-06-26T02:50:09;2.47;;;2.28;;
37931;SDS011;23758;42.640;23.302;2023-06-26T02:52:35;3.03;;;2.78;;
37931;SDS011;23758;42.640;23.302;2023-06-26T02:55:00;2.72;;;2.22;;
37931;SDS011;23758;42.640;23.302;2023-06-26T02:57:26;2.40;;;2.20;;
37931;SDS011;23758;42.640;23.302;2023-06-26T02:59:51;2.20;;;2.10;;
37931;SDS011;23758;42.640;23.302;2023-06-26T03:02:17;2.67;;;2.47;;
37931;SDS011;23758;42.640;23.302;2023-06-26T03:04:42;2.58;;;2.38;;
37931;SDS011;23758;42.640;23.302;2023-06-26T03:07:08;2.40;;;2.22;;
37931;SDS011;23758;42.640;23.302;2023-06-26T03:09:33;2.63;;;2.42;;
37931;SDS011;23758;42.640;23.302;2023-06-26T03:11:59;2.28;;;2.15;;
37931;SDS011;23758;42.640;23.302;2023-06-26T03:14:25;2.50;;;2.30;;
37931;SDS011;23758;42.640;23.302;2023-06-26T03:16:51;2.20;;;2.10;;
37931;SDS011;23758;42.640;23.302;2023-06-26T03:19:17;2.55;;;2.35;;
37931;SDS011;23758;42.640;23.302;2023-06-26T03:21:43;2.30;;;2.20;;
37931;SDS011;23758;42.640;23.302;2023-06-26T03:24:08;2.30;;;2.20;;
37931;SDS011;23758;42.640;23.302;2023-06-26T03:26:34;2.63;;;2.42;;
37931;SDS011;23758;42.640;23.302;2023-06-26T03:28:59;3.25;;;2.95;;
37931;SDS011;23758;42.640;23.302;2023-06-26T03:31:25;2.63;;;2.42;;
37931;SDS011;23758;42.640;23.302;2023-06-26T03:33:50;2.70;;;2.50;;
37931;SDS011;23758;42.640;23.302;2023-06-26T03:36:16;2.88;;;2.67;;
37931;SDS011;23758;42.640;23.302;2023-06-26T03:38:41;2.90;;;2.70;;
37931;SDS011;23758;42.640;23.302;2023-06-26T03:41:07;2.40;;;2.25;;
37931;SDS011;23758;42.640;23.302;2023-06-26T03:43:32;2.92;;;2.72;;
37931;SDS011;23758;42.640;23.302;2023-06-26T03:45:58;2.42;;;2.22;;
37931;SDS011;23758;42.640;23.302;2023-06-26T03:48:23;2.60;;;2.40;;
37931;SDS011;23758;42.640;23.302;2023-06-26T03:50:49;2.40;;;2.22;;
37931;SDS011;23758;42.640;23.302;2023-06-26T03:53:14;2.83;;;2.63;;
37931;SDS011;23758;42.640;23.302;2023-06-26T03:55:40;2.25;;;2.15;;
37931;SDS011;23758;42.640;23.302;2023-06-26T03:58:05;2.95;;;2.75;;
37931;SDS011;23758;42.640;23.302;2023-06-26T04:00:30;2.78;;;2.58;;
37931;SDS011;23758;42.640;23.302;2023-06-26T04:02:56;2.42;;;2.28;;
37931;SDS011;23758;42.640;23.302;2023-06-26T04:05:22;3.63;;;2.55;;
37931;SDS011;23758;42.640;23.302;2023-06-26T04:07:51;2.30;;;2.10;;
37931;SDS011;23758;42.640;23.302;2023-06-26T04:10:16;2.40;;;2.30;;
37931;SDS011;23758;42.640;23.302;2023-06-26T04:12:42;2.40;;;2.20;;
37931;SDS011;23758;42.640;23.302;2023-06-26T04:15:08;2.90;;;2.70;;
37931;SDS011;23758;42.640;23.302;2023-06-26T04:17:33;2.78;;;2.58;;
37931;SDS011;23758;42.640;23.302;2023-06-26T04:19:59;2.60;;;2.40;;
37931;SDS011;23758;42.640;23.302;2023-06-26T04:22:24;2.30;;;2.20;;
37931;SDS011;23758;42.640;23.302;2023-06-26T04:24:50;2.50;;;2.30;;
37931;SDS011;23758;42.640;23.302;2023-06-26T04:27:16;2.55;;;2.35;;
37931;SDS011;23758;42.640;23.302;2023-06-26T04:29:43;2.70;;;2.50;;
37931;SDS011;23758;42.640;23.302;2023-06-26T04:32:08;2.50;;;2.30;;
37931;SDS011;23758;42.640;23.302;2023-06-26T04:34:33;2.10;;;2.00;;
37931;SDS011;23758;42.640;23.302;2023-06-26T04:37:01;2.47;;;2.28;;
37931;SDS011;23758;42.640;23.302;2023-06-26T04:39:29;1.90;;;1.80;;
37931;SDS011;23758;42.640;23.302;2023-06-26T04:41:55;2.17;;;2.03;;
37931;SDS011;23758;42.640;23.302;2023-06-26T04:44:20;2.13;;;2.00;;
37931;SDS011;23758;42.640;23.302;2023-06-26T04:46:46;2.00;;;1.90;;
37931;SDS011;23758;42.640;23.302;2023-06-26T04:49:11;1.70;;;1.60;;
37931;SDS011;23758;42.640;23.302;2023-06-26T04:51:37;2.40;;;2.20;;
37931;SDS011;23758;42.640;23.302;2023-06-26T04:54:08;2.00;;;1.90;;
37931;SDS011;23758;42.640;23.302;2023-06-26T04:56:34;2.15;;;1.95;;
37931;SDS011;23758;42.640;23.302;2023-06-26T04:59:00;1.90;;;1.80;;
37931;SDS011;23758;42.640;23.302;2023-06-26T05:01:26;1.80;;;1.70;;
37931;SDS011;23758;42.640;23.302;2023-06-26T05:03:54;1.95;;;1.85;;
37931;SDS011;23758;42.640;23.302;2023-06-26T05:06:20;1.75;;;1.60;;
37931;SDS011;23758;42.640;23.302;2023-06-26T05:08:45;1.70;;;1.60;;
37931;SDS011;23758;42.640;23.302;2023-06-26T05:11:11;1.33;;;1.23;;
37931;SDS011;23758;42.640;23.302;2023-06-26T05:13:36;1.65;;;1.55;;
37931;SDS011;23758;42.640;23.302;2023-06-26T05:16:01;1.60;;;1.50;;
37931;SDS011;23758;42.640;23.302;2023-06-26T05:18:27;1.60;;;1.50;;
37931;SDS011;23758;42.640;23.302;2023-06-26T05:20:53;2.25;;;1.88;;
37931;SDS011;23758;42.640;23.302;2023-06-26T05:23:18;1.90;;;1.80;;
37931;SDS011;23758;42.640;23.302;2023-06-26T05:25:44;1.85;;;1.75;;
37931;SDS011;23758;42.640;23.302;2023-06-26T05:28:10;1.60;;;1.50;;
37931;SDS011;23758;42.640;23.302;2023-06-26T05:30:37;1.95;;;1.85;;
37931;SDS011;23758;42.640;23.302;2023-06-26T05:33:03;2.40;;;2.20;;
37931;SDS011;23758;42.640;23.302;2023-06-26T05:35:29;1.92;;;1.83;;
37931;SDS011;23758;42.640;23.302;2023-06-26T05:37:56;1.83;;;1.73;;
37931;SDS011;23758;42.640;23.302;2023-06-26T05:40:22;2.30;;;2.10;;
37931;SDS011;23758;42.640;23.302;2023-06-26T05:42:48;2.10;;;2.00;;
37931;SDS011;23758;42.640;23.302;2023-06-26T05:45:14;2.08;;;1.88;;
37931;SDS011;23758;42.640;23.302;2023-06-26T05:47:39;2.05;;;1.95;;
37931;SDS011;23758;42.640;23.302;2023-06-26T05:50:06;2.28;;;2.13;;
37931;SDS011;23758;42.640;23.302;2023-06-26T05:52:32;2.83;;;2.05;;
37931;SDS011;23758;42.640;23.302;2023-06-26T05:54:58;2.67;;;2.47;;
37931;SDS011;23758;42.640;23.302;2023-06-26T05:57:25;2.45;;;2.25;;
37931;SDS011;23758;42.640;23.302;2023-06-26T05:59:52;2.33;;;1.98;;
37931;SDS011;23758;42.640;23.302;2023-06-26T06:02:18;2.40;;;2.20;;
37931;SDS011;23758;42.640;23.302;2023-06-26T06:04:43;2.40;;;2.30;;
37931;SDS011;23758;42.640;23.302;2023-06-26T06:07:09;2.22;;;2.13;;
37931;SDS011;23758;42.640;23.302;2023-06-26T06:09:34;2.50;;;2.30;;
37931;SDS011;23758;42.640;23.302;2023-06-26T06:11:59;2.30;;;2.10;;
37931;SDS011;23758;42.640;23.302;2023-06-26T06:14:26;2.25;;;2.10;;
37931;SDS011;23758;42.640;23.302;2023-06-26T06:16:53;1.92;;;1.83;;
37931;SDS011;23758;42.640;23.302;2023-06-26T06:19:18;1.80;;;1.70;;
37931;SDS011;23758;42.640;23.302;2023-06-26T06:21:44;2.10;;;1.92;;
37931;SDS011;23758;42.640;23.302;2023-06-26T06:24:09;1.80;;;1.70;;
37931;SDS011;23758;42.640;23.302;2023-06-26T06:26:35;1.83;;;1.73;;
37931;SDS011;23758;42.640;23.302;2023-06-26T06:29:00;1.73;;;1.63;;
37931;SDS011;23758;42.640;23.302;2023-06-26T06:31:26;1.92;;;1.83;;
37931;SDS011;23758;42.640;23.302;2023-06-26T06:33:53;1.90;;;1.80;;
37931;SDS011;23758;42.640;23.302;2023-06-26T06:36:19;1.90;;;1.80;;
37931;SDS011;23758;42.640;23.302;2023-06-26T06:38:45;2.00;;;1.90;;
37931;SDS011;23758;42.640;23.302;2023-06-26T06:41:10;2.00;;;1.90;;
37931;SDS011;23758;42.640;23.302;2023-06-26T06:43:36;1.90;;;1.80;;
37931;SDS011;23758;42.640;23.302;2023-06-26T06:46:02;1.98;;;1.88;;
37931;SDS011;23758;42.640;23.302;2023-06-26T06:48:27;1.80;;;1.70;;
37931;SDS011;23758;42.640;23.302;2023-06-26T06:50:53;2.00;;;1.90;;
37931;SDS011;23758;42.640;23.302;2023-06-26T06:53:18;1.70;;;1.60;;
37931;SDS011;23758;42.640;23.302;2023-06-26T06:55:48;1.70;;;1.60;;
37931;SDS011;23758;42.640;23.302;2023-06-26T06:58:14;1.60;;;1.50;;
37931;SDS011;23758;42.640;23.302;2023-06-26T07:00:41;2.22;;;2.10;;
37931;SDS011;23758;42.640;23.302;2023-06-26T07:03:07;1.63;;;1.52;;
37931;SDS011;23758;42.640;23.302;2023-06-26T07:05:32;1.80;;;1.70;;
37931;SDS011;23758;42.640;23.302;2023-06-26T07:07:58;2.05;;;1.95;;
37931;SDS011;23758;42.640;23.302;2023-06-26T07:10:23;1.83;;;1.73;;
37931;SDS011;23758;42.640;23.302;2023-06-26T07:12:49;1.70;;;1.60;;
37931;SDS011;23758;42.640;23.302;2023-06-26T07:15:14;2.38;;;2.20;;
37931;SDS011;23758;42.640;23.302;2023-06-26T07:17:40;1.80;;;1.70;;
37931;SDS011;23758;42.640;23.302;2023-06-26T07:20:06;1.50;;;1.40;;
37931;SDS011;23758;42.640;23.302;2023-06-26T07:22:33;1.60;;;1.50;;
37931;SDS011;23758;42.640;23.302;2023-06-26T07:24:59;1.70;;;1.60;;
37931;SDS011;23758;42.640;23.302;2023-06-26T07:27:25;1.80;;;1.70;;
37931;SDS011;23758;42.640;23.302;2023-06-26T07:29:50;1.65;;;1.55;;
37931;SDS011;23758;42.640;23.302;2023-06-26T07:32:16;1.73;;;1.63;;
37931;SDS011;23758;42.640;23.302;2023-06-26T07:34:41;1.80;;;1.70;;
37931;SDS011;23758;42.640;23.302;2023-06-26T07:37:07;1.80;;;1.70;;
37931;SDS011;23758;42.640;23.302;2023-06-26T07:39:32;1.77;;;1.67;;
37931;SDS011;23758;42.640;23.302;2023-06-26T07:41:57;3.72;;;2.25;;
37931;SDS011;23758;42.640;23.302;2023-06-26T07:44:24;1.70;;;1.60;;
37931;SDS011;23758;42.640;23.302;2023-06-26T07:46:49;1.80;;;1.70;;
37931;SDS011;23758;42.640;23.302;2023-06-26T07:49:15;1.50;;;1.40;;
37931;SDS011;23758;42.640;23.302;2023-06-26T07:51:40;1.65;;;1.55;;
37931;SDS011;23758;42.640;23.302;2023-06-26T07:54:06;1.85;;;1.75;;
37931;SDS011;23758;42.640;23.302;2023-06-26T07:56:34;2.08;;;1.70;;
37931;SDS011;23758;42.640;23.302;2023-06-26T07:59:00;1.70;;;1.60;;
37931;SDS011;23758;42.640;23.302;2023-06-26T08:01:29;1.90;;;1.80;;
37931;SDS011;23758;42.640;23.302;2023-06-26T08:03:54;1.50;;;1.40;;
37931;SDS011;23758;42.640;23.302;2023-06-26T08:06:20;1.30;;;1.23;;
37931;SDS011;23758;42.640;23.302;2023-06-26T08:08:45;1.27;;;1.20;;
37931;SDS011;23758;42.640;23.302;2023-06-26T08:11:11;1.10;;;1.10;;
37931;SDS011;23758;42.640;23.302;2023-06-26T08:13:36;1.13;;;1.10;;
37931;SDS011;23758;42.640;23.302;2023-06-26T08:16:02;1.20;;;1.10;;
37931;SDS011;23758;42.640;23.302;2023-06-26T08:18:27;1.10;;;1.10;;
37931;SDS011;23758;42.640;23.302;2023-06-26T08:20:53;1.30;;;1.20;;
37931;SDS011;23758;42.640;23.302;2023-06-26T08:23:19;1.10;;;1.10;;
37931;SDS011;23758;42.640;23.302;2023-06-26T08:25:46;1.80;;;1.45;;
37931;SDS011;23758;42.640;23.302;2023-06-26T08:28:12;1.02;;;1.02;;
37931;SDS011;23758;42.640;23.302;2023-06-26T08:30:38;1.35;;;1.25;;
37931;SDS011;23758;42.640;23.302;2023-06-26T08:33:03;1.23;;;1.17;;
37931;SDS011;23758;42.640;23.302;2023-06-26T08:35:28;1.38;;;1.27;;
37931;SDS011;23758;42.640;23.302;2023-06-26T08:37:54;4.25;;;1.98;;
37931;SDS011;23758;42.640;23.302;2023-06-26T08:40:19;1.40;;;1.30;;
37931;SDS011;23758;42.640;23.302;2023-06-26T08:42:46;1.10;;;1.10;;
37931;SDS011;23758;42.640;23.302;2023-06-26T08:45:12;1.38;;;1.27;;
37931;SDS011;23758;42.640;23.302;2023-06-26T08:47:37;1.90;;;1.20;;
37931;SDS011;23758;42.640;23.302;2023-06-26T08:50:13;1.92;;;1.65;;
37931;SDS011;23758;42.640;23.302;2023-06-26T08:55:29;1.30;;;1.20;;
37931;SDS011;23758;42.640;23.302;2023-06-26T08:57:57;1.50;;;1.40;;
37931;SDS011;23758;42.640;23.302;2023-06-26T09:00:22;1.60;;;1.50;;
37931;SDS011;23758;42.640;23.302;2023-06-26T09:02:48;1.35;;;1.25;;
37931;SDS011;23758;42.640;23.302;2023-06-26T09:05:13;2.67;;;1.77;;
37931;SDS011;23758;42.640;23.302;2023-06-26T09:07:39;1.33;;;1.23;;
37931;SDS011;23758;42.640;23.302;2023-06-26T09:10:05;1.15;;;1.13;;
37931;SDS011;23758;42.640;23.302;2023-06-26T09:12:31;1.60;;;1.50;;
37931;SDS011;23758;42.640;23.302;2023-06-26T09:14:57;1.42;;;1.33;;
37931;SDS011;23758;42.640;23.302;2023-06-26T09:17:24;1.40;;;1.30;;
37931;SDS011;23758;42.640;23.302;2023-06-26T09:19:51;1.23;;;1.20;;
37931;SDS011;23758;42.640;23.302;2023-06-26T09:22:17;1.30;;;1.20;;
37931;SDS011;23758;42.640;23.302;2023-06-26T09:24:43;1.60;;;1.40;;
37931;SDS011;23758;42.640;23.302;2023-06-26T09:27:09;3.38;;;1.48;;
37931;SDS011;23758;42.640;23.302;2023-06-26T09:29:34;1.17;;;1.17;;
37931;SDS011;23758;42.640;23.302;2023-06-26T09:32:00;1.33;;;1.25;;
37931;SDS011;23758;42.640;23.302;2023-06-26T09:34:32;1.45;;;1.35;;
37931;SDS011;23758;42.640;23.302;2023-06-26T09:36:58;1.23;;;1.20;;
37931;SDS011;23758;42.640;23.302;2023-06-26T09:39:26;1.40;;;1.30;;
37931;SDS011;23758;42.640;23.302;2023-06-26T09:41:51;1.38;;;1.27;;
37931;SDS011;23758;42.640;23.302;2023-06-26T09:44:17;1.00;;;1.00;;
37931;SDS011;23758;42.640;23.302;2023-06-26T09:46:44;1.25;;;1.17;;
37931;SDS011;23758;42.640;23.302;2023-06-26T09:49:11;1.35;;;1.25;;
37931;SDS011;23758;42.640;23.302;2023-06-26T09:51:38;1.40;;;1.30;;
37931;SDS011;23758;42.640;23.302;2023-06-26T09:54:05;1.10;;;1.10;;
37931;SDS011;23758;42.640;23.302;2023-06-26T09:56:31;1.40;;;1.30;;
37931;SDS011;23758;42.640;23.302;2023-06-26T09:58:58;1.48;;;1.20;;
37931;SDS011;23758;42.640;23.302;2023-06-26T10:01:26;1.30;;;1.20;;
37931;SDS011;23758;42.640;23.302;2023-06-26T10:03:52;1.33;;;1.23;;
37931;SDS011;23758;42.640;23.302;2023-06-26T10:06:19;1.40;;;1.30;;
37931;SDS011;23758;42.640;23.302;2023-06-26T10:08:47;1.27;;;1.17;;
37931;SDS011;23758;42.640;23.302;2023-06-26T10:11:15;1.30;;;1.20;;
37931;SDS011;23758;42.640;23.302;2023-06-26T10:13:42;1.60;;;1.40;;
37931;SDS011;23758;42.640;23.302;2023-06-26T10:16:11;1.15;;;1.15;;
37931;SDS011;23758;42.640;23.302;2023-06-26T10:18:38;1.33;;;1.23;;
37931;SDS011;23758;42.640;23.302;2023-06-26T10:21:04;1.10;;;1.10;;
37931;SDS011;23758;42.640;23.302;2023-06-26T10:23:30;3.00;;;1.42;;
37931;SDS011;23758;42.640;23.302;2023-06-26T10:25:57;0.80;;;0.80;;
37931;SDS011;23758;42.640;23.302;2023-06-26T10:28:24;0.77;;;0.77;;
37931;SDS011;23758;42.640;23.302;2023-06-26T10:30:52;0.75;;;0.75;;
37931;SDS011;23758;42.640;23.302;2023-06-26T10:33:18;0.90;;;0.90;;
37931;SDS011;23758;42.640;23.302;2023-06-26T10:35:44;0.95;;;0.95;;
37931;SDS011;23758;42.640;23.302;2023-06-26T10:38:10;1.00;;;1.00;;
37931;SDS011;23758;42.640;23.302;2023-06-26T10:40:40;1.58;;;1.15;;
37931;SDS011;23758;42.640;23.302;2023-06-26T10:43:10;1.15;;;1.13;;
37931;SDS011;23758;42.640;23.302;2023-06-26T10:45:37;1.40;;;1.30;;
37931;SDS011;23758;42.640;23.302;2023-06-26T10:48:08;2.97;;;2.25;;
37931;SDS011;23758;42.640;23.302;2023-06-26T10:50:34;1.58;;;1.48;;
37931;SDS011;23758;42.640;23.302;2023-06-26T10:55:42;1.80;;;1.70;;
37931;SDS011;23758;42.640;23.302;2023-06-26T11:03:46;1.60;;;1.50;;
37931;SDS011;23758;42.640;23.302;2023-06-26T11:06:18;1.60;;;1.50;;
37931;SDS011;23758;42.640;23.302;2023-06-26T11:08:46;1.40;;;1.30;;
37931;SDS011;23758;42.640;23.302;2023-06-26T11:11:15;1.60;;;1.50;;
37931;SDS011;23758;42.640;23.302;2023-06-26T11:13:41;1.58;;;1.48;;
37931;SDS011;23758;42.640;23.302;2023-06-26T11:16:07;1.50;;;1.40;;
37931;SDS011;23758;42.640;23.302;2023-06-26T11:18:32;1.60;;;1.50;;
37931;SDS011;23758;42.640;23.302;2023-06-26T11:21:31;1.42;;;1.33;;
37931;SDS011;23758;42.640;23.302;2023-06-26T11:23:49;1.50;;;1.40;;
37931;SDS011;23758;42.640;23.302;2023-06-26T11:26:19;1.60;;;1.50;;
37931;SDS011;23758;42.640;23.302;2023-06-26T11:28:51;1.50;;;1.40;;
37931;SDS011;23758;42.640;23.302;2023-06-26T11:33:55;1.48;;;1.38;;
37931;SDS011;23758;42.640;23.302;2023-06-26T11:36:25;1.52;;;1.42;;
37931;SDS011;23758;42.640;23.302;2023-06-26T11:38:58;1.40;;;1.30;;
37931;SDS011;23758;42.640;23.302;2023-06-26T11:41:29;1.48;;;1.38;;
37931;SDS011;23758;42.640;23.302;2023-06-26T11:43:55;1.55;;;1.45;;
37931;SDS011;23758;42.640;23.302;2023-06-26T11:46:22;1.42;;;1.33;;
37931;SDS011;23758;42.640;23.302;2023-06-26T11:48:48;1.13;;;1.13;;
37931;SDS011;23758;42.640;23.302;2023-06-26T11:51:14;1.77;;;1.58;;
37931;SDS011;23758;42.640;23.302;2023-06-26T11:53:43;1.40;;;1.30;;
37931;SDS011;23758;42.640;23.302;2023-06-26T11:56:10;1.23;;;1.20;;
37931;SDS011;23758;42.640;23.302;2023-06-26T12:01:35;1.50;;;1.40;;
37931;SDS011;23758;42.640;23.302;2023-06-26T12:04:08;1.70;;;1.60;;
37931;SDS011;23758;42.640;23.302;2023-06-26T12:06:34;1.20;;;1.20;;
37931;SDS011;23758;42.640;23.302;2023-06-26T12:09:02;1.40;;;1.30;;
37931;SDS011;23758;42.640;23.302;2023-06-26T12:11:30;1.20;;;1.20;;
37931;SDS011;23758;42.640;23.302;2023-06-26T12:13:56;1.42;;;1.33;;
37931;SDS011;23758;42.640;23.302;2023-06-26T12:16:21;1.48;;;1.38;;
37931;SDS011;23758;42.640;23.302;2023-06-26T12:18:47;1.30;;;1.20;;
37931;SDS011;23758;42.640;23.302;2023-06-26T12:24:18;1.02;;;1.02;;
37931;SDS011;23758;42.640;23.302;2023-06-26T12:26:45;1.63;;;1.10;;
37931;SDS011;23758;42.640;23.302;2023-06-26T12:29:13;1.00;;;1.00;;
37931;SDS011;23758;42.640;23.302;2023-06-26T12:31:43;1.05;;;1.05;;
37931;SDS011;23758;42.640;23.302;2023-06-26T12:34:26;1.55;;;1.45;;
37931;SDS011;23758;42.640;23.302;2023-06-26T12:36:53;1.45;;;1.30;;
37931;SDS011;23758;42.640;23.302;2023-06-26T12:39:24;1.00;;;1.00;;
37931;SDS011;23758;42.640;23.302;2023-06-26T12:41:57;1.00;;;1.00;;
37931;SDS011;23758;42.640;23.302;2023-06-26T12:44:26;1.52;;;1.42;;
37931;SDS011;23758;42.640;23.302;2023-06-26T12:47:01;1.20;;;1.20;;
37931;SDS011;23758;42.640;23.302;2023-06-26T12:49:35;1.40;;;1.30;;
37931;SDS011;23758;42.640;23.302;2023-06-26T12:52:03;1.52;;;1.42;;
37931;SDS011;23758;42.640;23.302;2023-06-26T12:54:30;1.55;;;1.45;;
37931;SDS011;23758;42.640;23.302;2023-06-26T12:56:56;1.50;;;1.40;;
37931;SDS011;23758;42.640;23.302;2023-06-26T12:59:22;1.40;;;1.30;;
37931;SDS011;23758;42.640;23.302;2023-06-26T13:01:48;1.52;;;1.42;;
37931;SDS011;23758;42.640;23.302;2023-06-26T13:04:14;1.45;;;1.35;;
37931;SDS011;23758;42.640;23.302;2023-06-26T13:06:40;1.70;;;1.60;;
37931;SDS011;23758;42.640;23.302;2023-06-26T13:09:05;1.45;;;1.35;;
37931;SDS011;23758;42.640;23.302;2023-06-26T13:11:31;1.40;;;1.30;;
37931;SDS011;23758;42.640;23.302;2023-06-26T13:13:58;1.20;;;1.20;;
37931;SDS011;23758;42.640;23.302;2023-06-26T13:16:24;1.40;;;1.30;;
37931;SDS011;23758;42.640;23.302;2023-06-26T13:18:49;1.58;;;1.48;;
37931;SDS011;23758;42.640;23.302;2023-06-26T13:21:15;1.77;;;1.67;;
37931;SDS011;23758;42.640;23.302;2023-06-26T13:23:42;1.40;;;1.30;;
37931;SDS011;23758;42.640;23.302;2023-06-26T13:26:07;1.67;;;1.58;;
37931;SDS011;23758;42.640;23.302;2023-06-26T13:28:33;1.63;;;1.52;;
37931;SDS011;23758;42.640;23.302;2023-06-26T13:30:59;1.30;;;1.20;;
37931;SDS011;23758;42.640;23.302;2023-06-26T13:33:24;1.50;;;1.40;;
37931;SDS011;23758;42.640;23.302;2023-06-26T13:35:53;1.48;;;1.38;;
37931;SDS011;23758;42.640;23.302;2023-06-26T13:38:21;1.58;;;1.48;;
37931;SDS011;23758;42.640;23.302;2023-06-26T13:40:53;1.60;;;1.50;;
37931;SDS011;23758;42.640;23.302;2023-06-26T13:43:20;1.50;;;1.40;;
37931;SDS011;23758;42.640;23.302;2023-06-26T13:45:47;1.38;;;1.27;;
37931;SDS011;23758;42.640;23.302;2023-06-26T13:48:12;1.40;;;1.30;;
37931;SDS011;23758;42.640;23.302;2023-06-26T13:50:44;1.40;;;1.30;;
37931;SDS011;23758;42.640;23.302;2023-06-26T13:53:10;1.48;;;1.38;;
37931;SDS011;23758;42.640;23.302;2023-06-26T13:55:36;1.83;;;1.73;;
37931;SDS011;23758;42.640;23.302;2023-06-26T13:58:03;1.42;;;1.33;;
37931;SDS011;23758;42.640;23.302;2023-06-26T14:00:32;1.40;;;1.30;;
37931;SDS011;23758;42.640;23.302;2023-06-26T14:03:03;2.00;;;1.90;;
37931;SDS011;23758;42.640;23.302;2023-06-26T14:05:29;1.48;;;1.38;;
37931;SDS011;23758;42.640;23.302;2023-06-26T14:07:55;1.60;;;1.50;;
37931;SDS011;23758;42.640;23.302;2023-06-26T14:10:21;1.70;;;1.60;;
37931;SDS011;23758;42.640;23.302;2023-06-26T14:12:46;1.60;;;1.50;;
37931;SDS011;23758;42.640;23.302;2023-06-26T14:15:12;1.90;;;1.80;;
37931;SDS011;23758;42.640;23.302;2023-06-26T14:17:38;1.60;;;1.50;;
37931;SDS011;23758;42.640;23.302;2023-06-26T14:20:05;1.67;;;1.58;;
37931;SDS011;23758;42.640;23.302;2023-06-26T14:22:35;1.65;;;1.55;;
37931;SDS011;23758;42.640;23.302;2023-06-26T14:25:01;1.35;;;1.30;;
37931;SDS011;23758;42.640;23.302;2023-06-26T14:27:27;1.50;;;1.40;;
37931;SDS011;23758;42.640;23.302;2023-06-26T14:29:53;2.00;;;1.88;;
37931;SDS011;23758;42.640;23.302;2023-06-26T14:32:18;1.40;;;1.30;;
37931;SDS011;23758;42.640;23.302;2023-06-26T14:34:44;1.50;;;1.40;;
37931;SDS011;23758;42.640;23.302;2023-06-26T14:37:09;1.65;;;1.55;;
37931;SDS011;23758;42.640;23.302;2023-06-26T14:39:34;1.48;;;1.38;;
37931;SDS011;23758;42.640;23.302;2023-06-26T14:42:00;1.30;;;1.20;;
37931;SDS011;23758;42.640;23.302;2023-06-26T14:44:25;1.58;;;1.48;;
37931;SDS011;23758;42.640;23.302;2023-06-26T14:46:51;1.60;;;1.50;;
37931;SDS011;23758;42.640;23.302;2023-06-26T14:49:16;1.42;;;1.33;;
37931;SDS011;23758;42.640;23.302;2023-06-26T14:51:42;1.48;;;1.38;;
37931;SDS011;23758;42.640;23.302;2023-06-26T14:54:07;1.85;;;1.70;;
37931;SDS011;23758;42.640;23.302;2023-06-26T14:56:33;6.50;;;1.77;;